sensor_id;sensor_type;location;lat;lon;timestamp;P1;durP1;ratioP1;P2;durP2;ratioP2
15528;SDS011;7866;52.280;9.500;2022-11-15T00:02:41;7.90;;;7.10;;
15528;SDS011;7866;52.280;9.500;2022-11-15T00:07:44;8.90;;;7.00;;
15528;SDS011;7866;52.280;9.500;2022-11-15T00:12:45;7.43;;;6.73;;
15528;SDS011;7866;52.280;9.500;2022-11-15T00:17:48;10.03;;;7.30;;
15528;SDS011;7866;52.280;9.500;2022-11-15T00:22:51;7.67;;;6.90;;
15528;SDS011;7866;52.280;9.500;2022-11-15T00:27:54;7.23;;;6.53;;
15528;SDS011;7866;52.280;9.500;2022-11-15T00:32:56;8.53;;;6.30;;
15528;SDS011;7866;52.280;9.500;2022-11-15T00:38:03;9.63;;;6.40;;
15528;SDS011;7866;52.280;9.500;2022-11-15T00:43:05;6.63;;;6.00;;
15528;SDS011;7866;52.280;9.500;2022-11-15T00:48:07;8.17;;;5.83;;
15528;SDS011;7866;52.280;9.500;2022-11-15T00:53:10;7.37;;;6.30;;
15528;SDS011;7866;52.280;9.500;2022-11-15T00:58:12;6.17;;;5.57;;
15528;SDS011;7866;52.280;9.500;2022-11-15T01:03:13;8.87;;;5.63;;
15528;SDS011;7866;52.280;9.500;2022-11-15T01:08:16;8.40;;;5.53;;
15528;SDS011;7866;52.280;9.500;2022-11-15T01:13:18;5.77;;;5.00;;
15528;SDS011;7866;52.280;9.500;2022-11-15T01:18:20;7.93;;;5.30;;
15528;SDS011;7866;52.280;9.500;2022-11-15T01:23:23;5.90;;;5.10;;
15528;SDS011;7866;52.280;9.500;2022-11-15T01:28:24;9.40;;;5.50;;
15528;SDS011;7866;52.280;9.500;2022-11-15T01:33:26;5.17;;;4.70;;
15528;SDS011;7866;52.280;9.500;2022-11-15T01:38:30;8.33;;;5.40;;
15528;SDS011;7866;52.280;9.500;2022-11-15T01:43:32;7.27;;;5.47;;
15528;SDS011;7866;52.280;9.500;2022-11-15T01:48:35;6.27;;;4.87;;
15528;SDS011;7866;52.280;9.500;2022-11-15T01:53:39;5.83;;;5.20;;
15528;SDS011;7866;52.280;9.500;2022-11-15T01:58:44;6.27;;;5.23;;
15528;SDS011;7866;52.280;9.500;2022-11-15T02:03:48;5.77;;;5.10;;
15528;SDS011;7866;52.280;9.500;2022-11-15T02:08:54;6.93;;;6.23;;
15528;SDS011;7866;52.280;9.500;2022-11-15T02:13:58;6.97;;;5.73;;
15528;SDS011;7866;52.280;9.500;2022-11-15T02:19:02;6.40;;;5.80;;
15528;SDS011;7866;52.280;9.500;2022-11-15T02:24:27;8.10;;;5.40;;
15528;SDS011;7866;52.280;9.500;2022-11-15T02:29:56;6.37;;;5.73;;
15528;SDS011;7866;52.280;9.500;2022-11-15T02:35:24;6.30;;;5.67;;
15528;SDS011;7866;52.280;9.500;2022-11-15T02:40:34;7.37;;;5.97;;
15528;SDS011;7866;52.280;9.500;2022-11-15T02:45:44;7.50;;;5.67;;
15528;SDS011;7866;52.280;9.500;2022-11-15T02:50:51;6.27;;;5.67;;
15528;SDS011;7866;52.280;9.500;2022-11-15T02:55:54;6.87;;;6.23;;
15528;SDS011;7866;52.280;9.500;2022-11-15T03:01:00;8.10;;;6.30;;
15528;SDS011;7866;52.280;9.500;2022-11-15T03:06:14;7.03;;;5.60;;
15528;SDS011;7866;52.280;9.500;2022-11-15T03:11:22;6.93;;;5.83;;
15528;SDS011;7866;52.280;9.500;2022-11-15T03:16:28;10.03;;;6.57;;
15528;SDS011;7866;52.280;9.500;2022-11-15T03:21:32;8.23;;;5.73;;
15528;SDS011;7866;52.280;9.500;2022-11-15T03:26:36;7.03;;;6.17;;
15528;SDS011;7866;52.280;9.500;2022-11-15T03:31:44;7.30;;;5.70;;
15528;SDS011;7866;52.280;9.500;2022-11-15T03:36:48;7.77;;;6.00;;
15528;SDS011;7866;52.280;9.500;2022-11-15T03:41:55;6.73;;;6.03;;
15528;SDS011;7866;52.280;9.500;2022-11-15T03:47:06;6.83;;;5.10;;
15528;SDS011;7866;52.280;9.500;2022-11-15T03:52:10;5.70;;;5.20;;
15528;SDS011;7866;52.280;9.500;2022-11-15T03:57:13;7.30;;;5.47;;
15528;SDS011;7866;52.280;9.500;2022-11-15T04:02:16;5.63;;;4.60;;
15528;SDS011;7866;52.280;9.500;2022-11-15T04:07:17;6.33;;;4.83;;
15528;SDS011;7866;52.280;9.500;2022-11-15T04:12:19;6.20;;;5.20;;
15528;SDS011;7866;52.280;9.500;2022-11-15T04:17:31;7.70;;;5.03;;
15528;SDS011;7866;52.280;9.500;2022-11-15T04:22:33;7.83;;;4.90;;
15528;SDS011;7866;52.280;9.500;2022-11-15T04:27:52;5.17;;;4.17;;
15528;SDS011;7866;52.280;9.500;2022-11-15T04:32:55;5.53;;;4.50;;
15528;SDS011;7866;52.280;9.500;2022-11-15T04:37:57;4.57;;;4.17;;
15528;SDS011;7866;52.280;9.500;2022-11-15T04:42:59;5.03;;;4.53;;
15528;SDS011;7866;52.280;9.500;2022-11-15T04:48:02;4.77;;;4.37;;
15528;SDS011;7866;52.280;9.500;2022-11-15T04:53:04;4.60;;;4.20;;
15528;SDS011;7866;52.280;9.500;2022-11-15T04:58:06;5.40;;;4.17;;
15528;SDS011;7866;52.280;9.500;2022-11-15T05:03:09;4.40;;;4.00;;
15528;SDS011;7866;52.280;9.500;2022-11-15T05:08:43;5.77;;;4.10;;
15528;SDS011;7866;52.280;9.500;2022-11-15T05:13:45;4.13;;;3.73;;
15528;SDS011;7866;52.280;9.500;2022-11-15T05:18:48;4.80;;;4.30;;
15528;SDS011;7866;52.280;9.500;2022-11-15T05:23:51;4.87;;;3.70;;
15528;SDS011;7866;52.280;9.500;2022-11-15T05:28:54;4.77;;;3.90;;
15528;SDS011;7866;52.280;9.500;2022-11-15T05:33:57;4.03;;;3.43;;
15528;SDS011;7866;52.280;9.500;2022-11-15T05:39:01;4.43;;;4.03;;
15528;SDS011;7866;52.280;9.500;2022-11-15T05:44:05;4.17;;;3.87;;
15528;SDS011;7866;52.280;9.500;2022-11-15T05:49:12;5.03;;;3.80;;
15528;SDS011;7866;52.280;9.500;2022-11-15T05:54:17;3.60;;;3.30;;
15528;SDS011;7866;52.280;9.500;2022-11-15T05:59:21;3.50;;;3.20;;
15528;SDS011;7866;52.280;9.500;2022-11-15T06:04:24;6.03;;;4.50;;
15528;SDS011;7866;52.280;9.500;2022-11-15T06:09:26;4.20;;;3.70;;
15528;SDS011;7866;52.280;9.500;2022-11-15T06:14:27;4.03;;;3.73;;
15528;SDS011;7866;52.280;9.500;2022-11-15T06:19:31;5.57;;;4.53;;
15528;SDS011;7866;52.280;9.500;2022-11-15T06:24:33;7.30;;;6.00;;
15528;SDS011;7866;52.280;9.500;2022-11-15T06:29:34;4.33;;;3.93;;
15528;SDS011;7866;52.280;9.500;2022-11-15T06:34:37;3.90;;;3.50;;
15528;SDS011;7866;52.280;9.500;2022-11-15T06:39:39;5.87;;;3.20;;
15528;SDS011;7866;52.280;9.500;2022-11-15T06:44:41;2.90;;;2.60;;
15528;SDS011;7866;52.280;9.500;2022-11-15T06:49:44;8.83;;;3.13;;
15528;SDS011;7866;52.280;9.500;2022-11-15T06:54:45;3.47;;;3.20;;
15528;SDS011;7866;52.280;9.500;2022-11-15T06:59:47;3.23;;;3.00;;
15528;SDS011;7866;52.280;9.500;2022-11-15T07:04:50;3.37;;;2.93;;
15528;SDS011;7866;52.280;9.500;2022-11-15T07:09:51;3.20;;;2.90;;
15528;SDS011;7866;52.280;9.500;2022-11-15T07:14:53;3.50;;;3.20;;
15528;SDS011;7866;52.280;9.500;2022-11-15T07:19:56;3.10;;;2.80;;
15528;SDS011;7866;52.280;9.500;2022-11-15T07:24:58;3.23;;;2.97;;
15528;SDS011;7866;52.280;9.500;2022-11-15T07:29:59;3.43;;;3.07;;
15528;SDS011;7866;52.280;9.500;2022-11-15T07:35:02;3.50;;;3.03;;
15528;SDS011;7866;52.280;9.500;2022-11-15T07:40:05;3.77;;;3.23;;
15528;SDS011;7866;52.280;9.500;2022-11-15T07:45:08;2.90;;;2.70;;
15528;SDS011;7866;52.280;9.500;2022-11-15T07:50:11;4.00;;;3.60;;
15528;SDS011;7866;52.280;9.500;2022-11-15T07:55:13;4.70;;;3.47;;
15528;SDS011;7866;52.280;9.500;2022-11-15T08:00:15;5.93;;;3.60;;
15528;SDS011;7866;52.280;9.500;2022-11-15T08:05:19;3.67;;;3.37;;
15528;SDS011;7866;52.280;9.500;2022-11-15T08:10:20;3.70;;;3.20;;
15528;SDS011;7866;52.280;9.500;2022-11-15T08:15:22;4.13;;;3.47;;
15528;SDS011;7866;52.280;9.500;2022-11-15T08:20:25;4.50;;;4.10;;
15528;SDS011;7866;52.280;9.500;2022-11-15T08:25:30;5.10;;;3.87;;
15528;SDS011;7866;52.280;9.500;2022-11-15T08:30:34;5.80;;;4.10;;
15528;SDS011;7866;52.280;9.500;2022-11-15T08:35:39;5.40;;;4.30;;
15528;SDS011;7866;52.280;9.500;2022-11-15T08:40:41;5.20;;;3.90;;
15528;SDS011;7866;52.280;9.500;2022-11-15T08:45:42;3.50;;;3.13;;
15528;SDS011;7866;52.280;9.500;2022-11-15T08:50:46;3.20;;;2.90;;
15528;SDS011;7866;52.280;9.500;2022-11-15T08:55:48;3.23;;;2.93;;
15528;SDS011;7866;52.280;9.500;2022-11-15T09:00:50;3.33;;;2.80;;
15528;SDS011;7866;52.280;9.500;2022-11-15T09:05:55;2.90;;;2.67;;
15528;SDS011;7866;52.280;9.500;2022-11-15T09:10:57;3.03;;;2.70;;
15528;SDS011;7866;52.280;9.500;2022-11-15T09:15:59;3.33;;;2.83;;
15528;SDS011;7866;52.280;9.500;2022-11-15T09:21:02;2.50;;;2.30;;
15528;SDS011;7866;52.280;9.500;2022-11-15T09:26:04;2.80;;;2.50;;
15528;SDS011;7866;52.280;9.500;2022-11-15T09:31:07;3.00;;;2.60;;
15528;SDS011;7866;52.280;9.500;2022-11-15T09:36:10;3.60;;;2.80;;
15528;SDS011;7866;52.280;9.500;2022-11-15T09:41:25;3.67;;;2.60;;
15528;SDS011;7866;52.280;9.500;2022-11-15T09:46:42;2.73;;;2.43;;
15528;SDS011;7866;52.280;9.500;2022-11-15T09:51:54;3.33;;;2.40;;
15528;SDS011;7866;52.280;9.500;2022-11-15T09:56:56;2.77;;;2.27;;
15528;SDS011;7866;52.280;9.500;2022-11-15T10:02:14;3.33;;;2.57;;
15528;SDS011;7866;52.280;9.500;2022-11-15T10:07:34;2.75;;;2.50;;
15528;SDS011;7866;52.280;9.500;2022-11-15T10:12:44;3.25;;;2.40;;
15528;SDS011;7866;52.280;9.500;2022-11-15T10:17:54;2.40;;;2.20;;
15528;SDS011;7866;52.280;9.500;2022-11-15T10:23:13;2.43;;;2.20;;
15528;SDS011;7866;52.280;9.500;2022-11-15T10:28:17;2.92;;;2.25;;
15528;SDS011;7866;52.280;9.500;2022-11-15T10:33:25;2.78;;;2.05;;
15528;SDS011;7866;52.280;9.500;2022-11-15T10:38:32;2.45;;;2.25;;
15528;SDS011;7866;52.280;9.500;2022-11-15T10:43:33;3.05;;;2.03;;
15528;SDS011;7866;52.280;9.500;2022-11-15T10:48:35;2.50;;;2.30;;
15528;SDS011;7866;52.280;9.500;2022-11-15T10:53:40;3.03;;;2.63;;
15528;SDS011;7866;52.280;9.500;2022-11-15T10:58:52;2.00;;;1.90;;
15528;SDS011;7866;52.280;9.500;2022-11-15T11:03:58;5.70;;;2.20;;
15528;SDS011;7866;52.280;9.500;2022-11-15T11:09:03;2.10;;;1.90;;
15528;SDS011;7866;52.280;9.500;2022-11-15T11:14:11;3.28;;;2.17;;
15528;SDS011;7866;52.280;9.500;2022-11-15T11:24:38;4.95;;;2.00;;
15528;SDS011;7866;52.280;9.500;2022-11-15T11:29:49;1.75;;;1.65;;
15528;SDS011;7866;52.280;9.500;2022-11-15T11:35:03;2.03;;;1.90;;
15528;SDS011;7866;52.280;9.500;2022-11-15T11:40:15;2.15;;;1.73;;
15528;SDS011;7866;52.280;9.500;2022-11-15T11:45:30;4.22;;;1.83;;
15528;SDS011;7866;52.280;9.500;2022-11-15T11:50:46;2.05;;;1.85;;
15528;SDS011;7866;52.280;9.500;2022-11-15T11:55:52;1.88;;;1.77;;
15528;SDS011;7866;52.280;9.500;2022-11-15T12:00:56;2.10;;;1.80;;
15528;SDS011;7866;52.280;9.500;2022-11-15T12:06:04;2.50;;;2.30;;
15528;SDS011;7866;52.280;9.500;2022-11-15T12:11:17;2.10;;;1.90;;
15528;SDS011;7866;52.280;9.500;2022-11-15T12:16:23;2.25;;;1.90;;
15528;SDS011;7866;52.280;9.500;2022-11-15T12:21:31;2.05;;;1.90;;
15528;SDS011;7866;52.280;9.500;2022-11-15T12:26:39;2.00;;;1.90;;
15528;SDS011;7866;52.280;9.500;2022-11-15T12:31:48;1.73;;;1.63;;
15528;SDS011;7866;52.280;9.500;2022-11-15T12:36:53;2.47;;;1.70;;
15528;SDS011;7866;52.280;9.500;2022-11-15T12:47:31;3.30;;;1.90;;
15528;SDS011;7866;52.280;9.500;2022-11-15T12:52:32;2.28;;;1.98;;
15528;SDS011;7866;52.280;9.500;2022-11-15T12:57:41;2.05;;;1.77;;
15528;SDS011;7866;52.280;9.500;2022-11-15T13:02:45;2.00;;;1.80;;
15528;SDS011;7866;52.280;9.500;2022-11-15T13:07:55;2.00;;;1.80;;
15528;SDS011;7866;52.280;9.500;2022-11-15T13:12:58;1.83;;;1.73;;
15528;SDS011;7866;52.280;9.500;2022-11-15T13:23:27;2.00;;;1.80;;
15528;SDS011;7866;52.280;9.500;2022-11-15T13:28:31;2.75;;;1.88;;
15528;SDS011;7866;52.280;9.500;2022-11-15T13:33:37;2.00;;;1.90;;
15528;SDS011;7866;52.280;9.500;2022-11-15T13:38:40;2.67;;;2.00;;
15528;SDS011;7866;52.280;9.500;2022-11-15T13:43:42;3.22;;;2.30;;
15528;SDS011;7866;52.280;9.500;2022-11-15T13:48:46;2.33;;;2.13;;
15528;SDS011;7866;52.280;9.500;2022-11-15T13:53:54;2.75;;;2.13;;
15528;SDS011;7866;52.280;9.500;2022-11-15T13:59:00;2.55;;;1.80;;
15528;SDS011;7866;52.280;9.500;2022-11-15T14:04:12;1.92;;;1.83;;
15528;SDS011;7866;52.280;9.500;2022-11-15T14:09:23;2.08;;;1.90;;
15528;SDS011;7866;52.280;9.500;2022-11-15T14:14:36;2.42;;;2.22;;
15528;SDS011;7866;52.280;9.500;2022-11-15T14:19:47;2.45;;;2.10;;
15528;SDS011;7866;52.280;9.500;2022-11-15T14:30:16;2.83;;;2.30;;
15528;SDS011;7866;52.280;9.500;2022-11-15T14:35:21;2.45;;;2.30;;
15528;SDS011;7866;52.280;9.500;2022-11-15T14:40:24;4.63;;;3.03;;
15528;SDS011;7866;52.280;9.500;2022-11-15T14:45:26;2.80;;;2.60;;
15528;SDS011;7866;52.280;9.500;2022-11-15T14:50:29;3.05;;;2.70;;
15528;SDS011;7866;52.280;9.500;2022-11-15T14:55:34;2.53;;;2.33;;
15528;SDS011;7866;52.280;9.500;2022-11-15T15:00:37;2.60;;;2.40;;
15528;SDS011;7866;52.280;9.500;2022-11-15T15:05:41;3.30;;;2.50;;
15528;SDS011;7866;52.280;9.500;2022-11-15T15:10:45;3.07;;;2.27;;
15528;SDS011;7866;52.280;9.500;2022-11-15T15:15:47;2.70;;;2.50;;
15528;SDS011;7866;52.280;9.500;2022-11-15T15:20:53;3.07;;;2.77;;
15528;SDS011;7866;52.280;9.500;2022-11-15T15:25:57;5.07;;;2.90;;
15528;SDS011;7866;52.280;9.500;2022-11-15T15:30:59;2.80;;;2.30;;
15528;SDS011;7866;52.280;9.500;2022-11-15T15:36:02;3.80;;;2.83;;
15528;SDS011;7866;52.280;9.500;2022-11-15T15:41:07;3.10;;;2.77;;
15528;SDS011;7866;52.280;9.500;2022-11-15T15:46:11;2.73;;;2.53;;
15528;SDS011;7866;52.280;9.500;2022-11-15T15:51:16;3.07;;;2.80;;
15528;SDS011;7866;52.280;9.500;2022-11-15T15:56:17;3.40;;;2.50;;
15528;SDS011;7866;52.280;9.500;2022-11-15T16:01:19;3.80;;;2.90;;
15528;SDS011;7866;52.280;9.500;2022-11-15T16:06:38;3.77;;;2.40;;
15528;SDS011;7866;52.280;9.500;2022-11-15T16:11:44;2.60;;;2.40;;
15528;SDS011;7866;52.280;9.500;2022-11-15T16:16:47;3.23;;;2.87;;
15528;SDS011;7866;52.280;9.500;2022-11-15T16:21:50;2.70;;;2.50;;
15528;SDS011;7866;52.280;9.500;2022-11-15T16:26:52;3.47;;;2.80;;
15528;SDS011;7866;52.280;9.500;2022-11-15T16:31:53;3.17;;;2.87;;
15528;SDS011;7866;52.280;9.500;2022-11-15T16:36:57;4.00;;;2.70;;
15528;SDS011;7866;52.280;9.500;2022-11-15T16:41:58;3.47;;;2.80;;
15528;SDS011;7866;52.280;9.500;2022-11-15T16:47:02;3.53;;;2.70;;
15528;SDS011;7866;52.280;9.500;2022-11-15T16:52:05;2.87;;;2.40;;
15528;SDS011;7866;52.280;9.500;2022-11-15T16:57:07;4.53;;;2.77;;
15528;SDS011;7866;52.280;9.500;2022-11-15T17:02:11;3.20;;;2.87;;
15528;SDS011;7866;52.280;9.500;2022-11-15T17:07:14;4.80;;;2.90;;
15528;SDS011;7866;52.280;9.500;2022-11-15T17:12:16;4.23;;;2.83;;
15528;SDS011;7866;52.280;9.500;2022-11-15T17:17:17;4.47;;;2.80;;
15528;SDS011;7866;52.280;9.500;2022-11-15T17:22:21;3.80;;;2.43;;
15528;SDS011;7866;52.280;9.500;2022-11-15T17:27:23;3.13;;;2.37;;
15528;SDS011;7866;52.280;9.500;2022-11-15T17:32:24;4.40;;;2.87;;
15528;SDS011;7866;52.280;9.500;2022-11-15T17:37:27;2.67;;;2.47;;
15528;SDS011;7866;52.280;9.500;2022-11-15T17:42:29;4.17;;;3.10;;
15528;SDS011;7866;52.280;9.500;2022-11-15T17:47:31;4.00;;;2.70;;
15528;SDS011;7866;52.280;9.500;2022-11-15T17:52:34;5.57;;;2.77;;
15528;SDS011;7866;52.280;9.500;2022-11-15T17:57:36;3.13;;;2.73;;
15528;SDS011;7866;52.280;9.500;2022-11-15T18:02:37;3.83;;;2.70;;
15528;SDS011;7866;52.280;9.500;2022-11-15T18:07:40;3.10;;;2.60;;
15528;SDS011;7866;52.280;9.500;2022-11-15T18:12:42;2.90;;;2.70;;
15528;SDS011;7866;52.280;9.500;2022-11-15T18:17:44;2.60;;;2.40;;
15528;SDS011;7866;52.280;9.500;2022-11-15T18:22:47;2.90;;;2.70;;
15528;SDS011;7866;52.280;9.500;2022-11-15T18:27:49;5.63;;;3.10;;
15528;SDS011;7866;52.280;9.500;2022-11-15T18:32:54;5.40;;;3.43;;
15528;SDS011;7866;52.280;9.500;2022-11-15T18:37:57;4.23;;;3.20;;
15528;SDS011;7866;52.280;9.500;2022-11-15T18:42:58;3.73;;;2.63;;
15528;SDS011;7866;52.280;9.500;2022-11-15T18:48:00;3.07;;;2.70;;
15528;SDS011;7866;52.280;9.500;2022-11-15T18:53:03;4.57;;;3.90;;
15528;SDS011;7866;52.280;9.500;2022-11-15T18:58:05;9.80;;;8.77;;
15528;SDS011;7866;52.280;9.500;2022-11-15T19:03:06;6.87;;;5.33;;
15528;SDS011;7866;52.280;9.500;2022-11-15T19:08:09;4.57;;;3.50;;
15528;SDS011;7866;52.280;9.500;2022-11-15T19:13:11;4.13;;;3.73;;
15528;SDS011;7866;52.280;9.500;2022-11-15T19:18:13;3.20;;;2.90;;
15528;SDS011;7866;52.280;9.500;2022-11-15T19:23:16;3.23;;;2.93;;
15528;SDS011;7866;52.280;9.500;2022-11-15T19:28:18;2.87;;;2.57;;
15528;SDS011;7866;52.280;9.500;2022-11-15T19:33:19;2.70;;;2.50;;
15528;SDS011;7866;52.280;9.500;2022-11-15T19:38:22;2.50;;;2.30;;
15528;SDS011;7866;52.280;9.500;2022-11-15T19:43:24;3.00;;;2.33;;
15528;SDS011;7866;52.280;9.500;2022-11-15T19:48:26;4.03;;;2.40;;
15528;SDS011;7866;52.280;9.500;2022-11-15T19:53:31;2.73;;;2.33;;
15528;SDS011;7866;52.280;9.500;2022-11-15T19:58:33;2.50;;;2.30;;
15528;SDS011;7866;52.280;9.500;2022-11-15T20:03:35;2.57;;;2.37;;
15528;SDS011;7866;52.280;9.500;2022-11-15T20:08:41;2.53;;;2.33;;
15528;SDS011;7866;52.280;9.500;2022-11-15T20:13:43;2.73;;;2.40;;
15528;SDS011;7866;52.280;9.500;2022-11-15T20:18:44;3.20;;;2.90;;
15528;SDS011;7866;52.280;9.500;2022-11-15T20:23:48;3.17;;;2.57;;
15528;SDS011;7866;52.280;9.500;2022-11-15T20:28:50;2.87;;;2.57;;
15528;SDS011;7866;52.280;9.500;2022-11-15T20:33:52;2.47;;;2.30;;
15528;SDS011;7866;52.280;9.500;2022-11-15T20:38:56;2.50;;;2.30;;
15528;SDS011;7866;52.280;9.500;2022-11-15T20:43:59;2.33;;;2.13;;
15528;SDS011;7866;52.280;9.500;2022-11-15T20:49:02;2.70;;;2.23;;
15528;SDS011;7866;52.280;9.500;2022-11-15T20:54:05;2.10;;;2.00;;
15528;SDS011;7866;52.280;9.500;2022-11-15T20:59:07;3.73;;;2.87;;
15528;SDS011;7866;52.280;9.500;2022-11-15T21:04:09;3.10;;;2.80;;
15528;SDS011;7866;52.280;9.500;2022-11-15T21:09:12;3.40;;;3.10;;
15528;SDS011;7866;52.280;9.500;2022-11-15T21:14:31;2.87;;;2.57;;
15528;SDS011;7866;52.280;9.500;2022-11-15T21:19:33;2.30;;;2.10;;
15528;SDS011;7866;52.280;9.500;2022-11-15T21:24:36;2.93;;;2.67;;
15528;SDS011;7866;52.280;9.500;2022-11-15T21:29:38;3.80;;;2.73;;
15528;SDS011;7866;52.280;9.500;2022-11-15T21:34:39;4.53;;;2.70;;
15528;SDS011;7866;52.280;9.500;2022-11-15T21:39:42;3.27;;;2.57;;
15528;SDS011;7866;52.280;9.500;2022-11-15T21:44:44;3.07;;;2.43;;
15528;SDS011;7866;52.280;9.500;2022-11-15T21:49:46;3.53;;;2.37;;
15528;SDS011;7866;52.280;9.500;2022-11-15T21:54:49;3.47;;;2.60;;
15528;SDS011;7866;52.280;9.500;2022-11-15T21:59:50;2.40;;;2.30;;
15528;SDS011;7866;52.280;9.500;2022-11-15T22:05:06;2.50;;;2.30;;
15528;SDS011;7866;52.280;9.500;2022-11-15T22:10:10;2.43;;;2.23;;
15528;SDS011;7866;52.280;9.500;2022-11-15T22:15:11;3.27;;;2.50;;
15528;SDS011;7866;52.280;9.500;2022-11-15T22:20:13;3.10;;;2.80;;
15528;SDS011;7866;52.280;9.500;2022-11-15T22:25:16;2.60;;;2.40;;
15528;SDS011;7866;52.280;9.500;2022-11-15T22:30:18;2.70;;;2.50;;
15528;SDS011;7866;52.280;9.500;2022-11-15T22:35:20;2.93;;;2.63;;
15528;SDS011;7866;52.280;9.500;2022-11-15T22:40:23;3.00;;;2.73;;
15528;SDS011;7866;52.280;9.500;2022-11-15T22:45:25;4.33;;;2.87;;
15528;SDS011;7866;52.280;9.500;2022-11-15T22:50:27;3.47;;;2.57;;
15528;SDS011;7866;52.280;9.500;2022-11-15T22:55:30;2.87;;;2.67;;
15528;SDS011;7866;52.280;9.500;2022-11-15T23:00:32;2.60;;;2.40;;
15528;SDS011;7866;52.280;9.500;2022-11-15T23:05:33;5.43;;;2.77;;
15528;SDS011;7866;52.280;9.500;2022-11-15T23:10:39;2.87;;;2.60;;
15528;SDS011;7866;52.280;9.500;2022-11-15T23:15:59;3.70;;;2.60;;
15528;SDS011;7866;52.280;9.500;2022-11-15T23:21:21;2.47;;;2.23;;
15528;SDS011;7866;52.280;9.500;2022-11-15T23:26:40;5.10;;;2.50;;
15528;SDS011;7866;52.280;9.500;2022-11-15T23:31:42;3.53;;;2.53;;
15528;SDS011;7866;52.280;9.500;2022-11-15T23:37:02;3.17;;;2.40;;
15528;SDS011;7866;52.280;9.500;2022-11-15T23:42:06;2.63;;;2.20;;
15528;SDS011;7866;52.280;9.500;2022-11-15T23:47:18;3.00;;;2.63;;
15528;SDS011;7866;52.280;9.500;2022-11-15T23:52:20;3.43;;;2.50;;
15528;SDS011;7866;52.280;9.500;2022-11-15T23:57:25;2.40;;;2.20;;
